sensor_id;sensor_type;location;lat;lon;timestamp;P1;durP1;ratioP1;P2;durP2;ratioP2
67839;SDS011;54636;51.684;5.142;2022-08-25T00:01:37;4.43;;;4.00;;
67839;SDS011;54636;51.684;5.142;2022-08-25T00:04:05;7.15;;;4.30;;
67839;SDS011;54636;51.684;5.142;2022-08-25T00:06:34;9.48;;;4.80;;
67839;SDS011;54636;51.684;5.142;2022-08-25T00:08:59;7.07;;;4.25;;
67839;SDS011;54636;51.684;5.142;2022-08-25T00:11:26;5.18;;;4.13;;
67839;SDS011;54636;51.684;5.142;2022-08-25T00:13:56;8.82;;;4.55;;
67839;SDS011;54636;51.684;5.142;2022-08-25T00:16:24;4.75;;;4.13;;
67839;SDS011;54636;51.684;5.142;2022-08-25T00:18:52;7.25;;;4.90;;
67839;SDS011;54636;51.684;5.142;2022-08-25T00:21:20;4.82;;;4.47;;
67839;SDS011;54636;51.684;5.142;2022-08-25T00:23:47;5.40;;;4.05;;
67839;SDS011;54636;51.684;5.142;2022-08-25T00:26:13;5.50;;;4.13;;
67839;SDS011;54636;51.684;5.142;2022-08-25T00:28:39;10.13;;;5.25;;
67839;SDS011;54636;51.684;5.142;2022-08-25T00:31:05;4.30;;;4.00;;
67839;SDS011;54636;51.684;5.142;2022-08-25T00:33:34;6.35;;;4.85;;
67839;SDS011;54636;51.684;5.142;2022-08-25T00:36:00;6.20;;;5.55;;
67839;SDS011;54636;51.684;5.142;2022-08-25T00:38:25;6.60;;;6.00;;
67839;SDS011;54636;51.684;5.142;2022-08-25T00:40:51;6.70;;;5.50;;
67839;SDS011;54636;51.684;5.142;2022-08-25T00:43:49;6.47;;;5.70;;
67839;SDS011;54636;51.684;5.142;2022-08-25T00:46:20;5.95;;;5.45;;
67839;SDS011;54636;51.684;5.142;2022-08-25T00:48:50;6.72;;;4.88;;
67839;SDS011;54636;51.684;5.142;2022-08-25T00:51:34;6.07;;;5.50;;
67839;SDS011;54636;51.684;5.142;2022-08-25T00:54:03;5.88;;;5.38;;
67839;SDS011;54636;51.684;5.142;2022-08-25T00:56:29;5.65;;;5.25;;
67839;SDS011;54636;51.684;5.142;2022-08-25T00:58:56;6.40;;;5.72;;
67839;SDS011;54636;51.684;5.142;2022-08-25T01:01:23;6.60;;;6.05;;
67839;SDS011;54636;51.684;5.142;2022-08-25T01:03:49;5.85;;;5.45;;
67839;SDS011;54636;51.684;5.142;2022-08-25T01:06:15;5.70;;;5.30;;
67839;SDS011;54636;51.684;5.142;2022-08-25T01:08:40;5.80;;;5.20;;
67839;SDS011;54636;51.684;5.142;2022-08-25T01:11:06;11.55;;;5.82;;
67839;SDS011;54636;51.684;5.142;2022-08-25T01:13:36;6.22;;;5.70;;
67839;SDS011;54636;51.684;5.142;2022-08-25T01:16:04;11.02;;;5.50;;
67839;SDS011;54636;51.684;5.142;2022-08-25T01:18:41;5.50;;;5.10;;
67839;SDS011;54636;51.684;5.142;2022-08-25T01:21:20;6.45;;;5.95;;
67839;SDS011;54636;51.684;5.142;2022-08-25T01:23:47;6.97;;;5.05;;
67839;SDS011;54636;51.684;5.142;2022-08-25T01:26:32;6.25;;;5.70;;
67839;SDS011;54636;51.684;5.142;2022-08-25T01:29:00;6.20;;;5.60;;
67839;SDS011;54636;51.684;5.142;2022-08-25T01:31:46;7.57;;;5.57;;
67839;SDS011;54636;51.684;5.142;2022-08-25T01:34:13;5.63;;;5.32;;
67839;SDS011;54636;51.684;5.142;2022-08-25T01:36:40;6.07;;;5.57;;
67839;SDS011;54636;51.684;5.142;2022-08-25T01:39:07;6.43;;;5.93;;
67839;SDS011;54636;51.684;5.142;2022-08-25T01:43:58;6.78;;;5.57;;
67839;SDS011;54636;51.684;5.142;2022-08-25T01:46:25;10.00;;;6.03;;
67839;SDS011;54636;51.684;5.142;2022-08-25T01:48:50;6.03;;;5.53;;
67839;SDS011;54636;51.684;5.142;2022-08-25T01:51:23;7.63;;;6.07;;
67839;SDS011;54636;51.684;5.142;2022-08-25T01:53:49;6.40;;;5.88;;
67839;SDS011;54636;51.684;5.142;2022-08-25T01:56:15;6.30;;;5.68;;
67839;SDS011;54636;51.684;5.142;2022-08-25T01:58:43;5.85;;;5.30;;
67839;SDS011;54636;51.684;5.142;2022-08-25T02:01:15;5.82;;;5.22;;
67839;SDS011;54636;51.684;5.142;2022-08-25T02:03:43;6.15;;;5.68;;
67839;SDS011;54636;51.684;5.142;2022-08-25T02:06:13;6.25;;;5.35;;
67839;SDS011;54636;51.684;5.142;2022-08-25T02:08:42;6.78;;;6.13;;
67839;SDS011;54636;51.684;5.142;2022-08-25T02:11:11;7.15;;;5.45;;
67839;SDS011;54636;51.684;5.142;2022-08-25T02:13:39;8.02;;;6.05;;
67839;SDS011;54636;51.684;5.142;2022-08-25T02:16:06;6.28;;;5.88;;
67839;SDS011;54636;51.684;5.142;2022-08-25T02:18:33;7.38;;;6.05;;
67839;SDS011;54636;51.684;5.142;2022-08-25T02:20:59;8.15;;;6.13;;
67839;SDS011;54636;51.684;5.142;2022-08-25T02:23:25;7.90;;;7.15;;
67839;SDS011;54636;51.684;5.142;2022-08-25T02:25:51;8.73;;;6.70;;
67839;SDS011;54636;51.684;5.142;2022-08-25T02:28:16;7.65;;;6.95;;
67839;SDS011;54636;51.684;5.142;2022-08-25T02:30:42;9.85;;;7.13;;
67839;SDS011;54636;51.684;5.142;2022-08-25T02:33:08;7.30;;;6.30;;
67839;SDS011;54636;51.684;5.142;2022-08-25T02:35:34;7.90;;;6.85;;
67839;SDS011;54636;51.684;5.142;2022-08-25T02:37:59;7.97;;;7.18;;
67839;SDS011;54636;51.684;5.142;2022-08-25T02:40:25;7.72;;;7.03;;
67839;SDS011;54636;51.684;5.142;2022-08-25T02:42:51;8.20;;;7.50;;
67839;SDS011;54636;51.684;5.142;2022-08-25T02:45:17;8.68;;;7.88;;
67839;SDS011;54636;51.684;5.142;2022-08-25T02:47:43;7.93;;;7.13;;
67839;SDS011;54636;51.684;5.142;2022-08-25T02:50:09;8.10;;;7.30;;
67839;SDS011;54636;51.684;5.142;2022-08-25T02:52:34;8.15;;;7.47;;
67839;SDS011;54636;51.684;5.142;2022-08-25T02:55:04;8.75;;;7.90;;
67839;SDS011;54636;51.684;5.142;2022-08-25T02:57:32;8.60;;;7.63;;
67839;SDS011;54636;51.684;5.142;2022-08-25T02:59:57;7.90;;;7.20;;
67839;SDS011;54636;51.684;5.142;2022-08-25T03:02:23;8.77;;;7.80;;
67839;SDS011;54636;51.684;5.142;2022-08-25T03:04:50;13.45;;;8.20;;
67839;SDS011;54636;51.684;5.142;2022-08-25T03:07:16;10.50;;;7.80;;
67839;SDS011;54636;51.684;5.142;2022-08-25T03:09:42;11.90;;;7.95;;
67839;SDS011;54636;51.684;5.142;2022-08-25T03:12:08;7.82;;;7.07;;
67839;SDS011;54636;51.684;5.142;2022-08-25T03:14:34;9.23;;;8.13;;
67839;SDS011;54636;51.684;5.142;2022-08-25T03:17:00;8.70;;;7.80;;
67839;SDS011;54636;51.684;5.142;2022-08-25T03:19:26;8.30;;;7.50;;
67839;SDS011;54636;51.684;5.142;2022-08-25T03:21:51;8.43;;;7.72;;
67839;SDS011;54636;51.684;5.142;2022-08-25T03:24:20;9.20;;;8.40;;
67839;SDS011;54636;51.684;5.142;2022-08-25T03:26:45;9.05;;;8.30;;
67839;SDS011;54636;51.684;5.142;2022-08-25T03:29:24;11.95;;;8.05;;
67839;SDS011;54636;51.684;5.142;2022-08-25T03:31:52;10.48;;;8.15;;
67839;SDS011;54636;51.684;5.142;2022-08-25T03:34:19;9.10;;;8.20;;
67839;SDS011;54636;51.684;5.142;2022-08-25T03:36:46;8.82;;;8.00;;
67839;SDS011;54636;51.684;5.142;2022-08-25T03:39:13;11.63;;;8.63;;
67839;SDS011;54636;51.684;5.142;2022-08-25T03:41:40;15.85;;;7.97;;
67839;SDS011;54636;51.684;5.142;2022-08-25T03:44:06;17.38;;;8.60;;
67839;SDS011;54636;51.684;5.142;2022-08-25T03:46:36;13.82;;;8.60;;
67839;SDS011;54636;51.684;5.142;2022-08-25T03:49:04;9.25;;;8.48;;
67839;SDS011;54636;51.684;5.142;2022-08-25T03:51:32;10.75;;;8.65;;
67839;SDS011;54636;51.684;5.142;2022-08-25T03:54:02;11.23;;;8.43;;
67839;SDS011;54636;51.684;5.142;2022-08-25T03:56:28;10.60;;;8.73;;
67839;SDS011;54636;51.684;5.142;2022-08-25T03:58:54;11.05;;;8.27;;
67839;SDS011;54636;51.684;5.142;2022-08-25T04:01:20;9.40;;;8.60;;
67839;SDS011;54636;51.684;5.142;2022-08-25T04:03:45;9.65;;;8.57;;
67839;SDS011;54636;51.684;5.142;2022-08-25T04:06:12;12.90;;;8.75;;
67839;SDS011;54636;51.684;5.142;2022-08-25T04:08:39;11.63;;;8.75;;
67839;SDS011;54636;51.684;5.142;2022-08-25T04:11:05;14.88;;;8.60;;
67839;SDS011;54636;51.684;5.142;2022-08-25T04:13:37;12.52;;;9.30;;
67839;SDS011;54636;51.684;5.142;2022-08-25T04:16:08;13.63;;;8.82;;
67839;SDS011;54636;51.684;5.142;2022-08-25T04:18:36;9.50;;;8.68;;
67839;SDS011;54636;51.684;5.142;2022-08-25T04:21:03;12.80;;;8.68;;
67839;SDS011;54636;51.684;5.142;2022-08-25T04:23:30;9.73;;;8.70;;
67839;SDS011;54636;51.684;5.142;2022-08-25T04:25:56;13.23;;;8.98;;
67839;SDS011;54636;51.684;5.142;2022-08-25T04:28:21;11.93;;;9.05;;
67839;SDS011;54636;51.684;5.142;2022-08-25T04:30:47;9.05;;;8.15;;
67839;SDS011;54636;51.684;5.142;2022-08-25T04:33:12;13.85;;;8.60;;
67839;SDS011;54636;51.684;5.142;2022-08-25T04:35:38;13.25;;;9.40;;
67839;SDS011;54636;51.684;5.142;2022-08-25T04:38:05;9.30;;;8.55;;
67839;SDS011;54636;51.684;5.142;2022-08-25T04:40:31;22.73;;;9.00;;
67839;SDS011;54636;51.684;5.142;2022-08-25T04:42:56;9.45;;;8.05;;
67839;SDS011;54636;51.684;5.142;2022-08-25T04:45:22;12.02;;;8.52;;
67839;SDS011;54636;51.684;5.142;2022-08-25T04:47:47;9.65;;;8.82;;
67839;SDS011;54636;51.684;5.142;2022-08-25T04:50:12;9.57;;;8.60;;
67839;SDS011;54636;51.684;5.142;2022-08-25T04:52:38;9.40;;;8.50;;
67839;SDS011;54636;51.684;5.142;2022-08-25T04:55:03;10.35;;;8.43;;
67839;SDS011;54636;51.684;5.142;2022-08-25T04:57:29;10.10;;;9.00;;
67839;SDS011;54636;51.684;5.142;2022-08-25T04:59:54;12.13;;;8.05;;
67839;SDS011;54636;51.684;5.142;2022-08-25T05:02:20;10.73;;;8.38;;
67839;SDS011;54636;51.684;5.142;2022-08-25T05:04:49;13.02;;;8.63;;
67839;SDS011;54636;51.684;5.142;2022-08-25T05:07:15;12.70;;;8.48;;
67839;SDS011;54636;51.684;5.142;2022-08-25T05:09:40;9.65;;;8.05;;
67839;SDS011;54636;51.684;5.142;2022-08-25T05:12:06;9.05;;;7.90;;
67839;SDS011;54636;51.684;5.142;2022-08-25T05:14:31;11.65;;;8.55;;
67839;SDS011;54636;51.684;5.142;2022-08-25T05:16:57;13.27;;;8.00;;
67839;SDS011;54636;51.684;5.142;2022-08-25T05:19:22;9.60;;;7.63;;
67839;SDS011;54636;51.684;5.142;2022-08-25T05:21:48;12.85;;;7.70;;
67839;SDS011;54636;51.684;5.142;2022-08-25T05:24:13;12.90;;;7.60;;
67839;SDS011;54636;51.684;5.142;2022-08-25T05:26:39;11.55;;;7.70;;
67839;SDS011;54636;51.684;5.142;2022-08-25T05:29:05;15.07;;;6.70;;
67839;SDS011;54636;51.684;5.142;2022-08-25T05:31:31;7.45;;;6.68;;
67839;SDS011;54636;51.684;5.142;2022-08-25T05:33:57;7.45;;;6.70;;
67839;SDS011;54636;51.684;5.142;2022-08-25T05:36:24;10.82;;;6.45;;
67839;SDS011;54636;51.684;5.142;2022-08-25T05:38:51;8.45;;;6.07;;
67839;SDS011;54636;51.684;5.142;2022-08-25T05:41:17;7.72;;;6.32;;
67839;SDS011;54636;51.684;5.142;2022-08-25T05:43:48;10.43;;;6.03;;
67839;SDS011;54636;51.684;5.142;2022-08-25T05:46:14;11.30;;;6.47;;
67839;SDS011;54636;51.684;5.142;2022-08-25T05:48:41;8.80;;;5.38;;
67839;SDS011;54636;51.684;5.142;2022-08-25T05:51:07;12.13;;;5.88;;
67839;SDS011;54636;51.684;5.142;2022-08-25T05:53:34;9.02;;;6.50;;
67839;SDS011;54636;51.684;5.142;2022-08-25T05:56:00;9.57;;;5.38;;
67839;SDS011;54636;51.684;5.142;2022-08-25T05:58:26;8.38;;;5.57;;
67839;SDS011;54636;51.684;5.142;2022-08-25T06:00:53;7.90;;;5.47;;
67839;SDS011;54636;51.684;5.142;2022-08-25T06:03:19;5.80;;;5.28;;
67839;SDS011;54636;51.684;5.142;2022-08-25T06:05:44;8.05;;;5.13;;
67839;SDS011;54636;51.684;5.142;2022-08-25T06:08:10;7.28;;;5.05;;
67839;SDS011;54636;51.684;5.142;2022-08-25T06:10:36;8.32;;;5.07;;
67839;SDS011;54636;51.684;5.142;2022-08-25T06:13:02;13.90;;;5.32;;
67839;SDS011;54636;51.684;5.142;2022-08-25T06:15:28;10.00;;;5.07;;
67839;SDS011;54636;51.684;5.142;2022-08-25T06:17:54;9.93;;;4.93;;
67839;SDS011;54636;51.684;5.142;2022-08-25T06:20:23;6.65;;;5.50;;
67839;SDS011;54636;51.684;5.142;2022-08-25T06:22:50;9.77;;;4.43;;
67839;SDS011;54636;51.684;5.142;2022-08-25T06:25:17;9.48;;;4.53;;
67839;SDS011;54636;51.684;5.142;2022-08-25T06:27:44;14.02;;;4.47;;
67839;SDS011;54636;51.684;5.142;2022-08-25T06:30:11;8.43;;;4.50;;
67839;SDS011;54636;51.684;5.142;2022-08-25T06:32:39;10.97;;;4.37;;
67839;SDS011;54636;51.684;5.142;2022-08-25T06:35:06;5.95;;;4.68;;
67839;SDS011;54636;51.684;5.142;2022-08-25T06:37:34;11.80;;;4.30;;
67839;SDS011;54636;51.684;5.142;2022-08-25T06:40:00;5.95;;;4.30;;
67839;SDS011;54636;51.684;5.142;2022-08-25T06:42:25;15.57;;;4.03;;
67839;SDS011;54636;51.684;5.142;2022-08-25T06:44:51;9.68;;;4.13;;
67839;SDS011;54636;51.684;5.142;2022-08-25T06:47:16;9.52;;;3.85;;
67839;SDS011;54636;51.684;5.142;2022-08-25T06:49:42;6.28;;;3.53;;
67839;SDS011;54636;51.684;5.142;2022-08-25T06:52:08;15.27;;;3.85;;
67839;SDS011;54636;51.684;5.142;2022-08-25T06:54:34;9.65;;;3.33;;
67839;SDS011;54636;51.684;5.142;2022-08-25T06:57:00;12.80;;;3.45;;
67839;SDS011;54636;51.684;5.142;2022-08-25T06:59:26;14.10;;;4.00;;
67839;SDS011;54636;51.684;5.142;2022-08-25T07:01:51;14.13;;;3.97;;
67839;SDS011;54636;51.684;5.142;2022-08-25T07:04:17;5.55;;;3.63;;
67839;SDS011;54636;51.684;5.142;2022-08-25T07:06:43;7.22;;;3.47;;
67839;SDS011;54636;51.684;5.142;2022-08-25T07:09:10;10.23;;;4.53;;
67839;SDS011;54636;51.684;5.142;2022-08-25T07:11:37;9.77;;;3.53;;
67839;SDS011;54636;51.684;5.142;2022-08-25T07:14:04;19.88;;;3.92;;
67839;SDS011;54636;51.684;5.142;2022-08-25T07:16:31;7.53;;;3.97;;
67839;SDS011;54636;51.684;5.142;2022-08-25T07:18:57;10.38;;;3.53;;
67839;SDS011;54636;51.684;5.142;2022-08-25T07:21:24;5.88;;;3.65;;
67839;SDS011;54636;51.684;5.142;2022-08-25T07:23:51;6.55;;;3.95;;
67839;SDS011;54636;51.684;5.142;2022-08-25T07:26:21;8.15;;;3.80;;
67839;SDS011;54636;51.684;5.142;2022-08-25T07:28:49;8.38;;;3.85;;
67839;SDS011;54636;51.684;5.142;2022-08-25T07:31:15;9.60;;;3.17;;
67839;SDS011;54636;51.684;5.142;2022-08-25T07:33:41;14.35;;;4.35;;
67839;SDS011;54636;51.684;5.142;2022-08-25T07:36:27;8.02;;;3.47;;
67839;SDS011;54636;51.684;5.142;2022-08-25T07:38:52;8.70;;;3.25;;
67839;SDS011;54636;51.684;5.142;2022-08-25T07:41:18;7.97;;;3.58;;
67839;SDS011;54636;51.684;5.142;2022-08-25T07:43:43;13.40;;;3.53;;
67839;SDS011;54636;51.684;5.142;2022-08-25T07:46:09;10.43;;;3.25;;
67839;SDS011;54636;51.684;5.142;2022-08-25T07:48:35;7.30;;;3.53;;
67839;SDS011;54636;51.684;5.142;2022-08-25T07:51:05;6.97;;;3.80;;
67839;SDS011;54636;51.684;5.142;2022-08-25T07:53:32;9.95;;;3.08;;
67839;SDS011;54636;51.684;5.142;2022-08-25T07:55:57;7.43;;;3.90;;
67839;SDS011;54636;51.684;5.142;2022-08-25T07:58:23;11.98;;;4.38;;
67839;SDS011;54636;51.684;5.142;2022-08-25T08:00:48;8.75;;;3.90;;
67839;SDS011;54636;51.684;5.142;2022-08-25T08:03:17;15.57;;;3.97;;
67839;SDS011;54636;51.684;5.142;2022-08-25T08:05:42;11.95;;;3.95;;
67839;SDS011;54636;51.684;5.142;2022-08-25T08:08:08;5.35;;;3.80;;
67839;SDS011;54636;51.684;5.142;2022-08-25T08:10:33;8.30;;;4.25;;
67839;SDS011;54636;51.684;5.142;2022-08-25T08:13:02;12.88;;;3.55;;
67839;SDS011;54636;51.684;5.142;2022-08-25T08:15:28;14.23;;;4.55;;
67839;SDS011;54636;51.684;5.142;2022-08-25T08:17:53;10.35;;;2.95;;
67839;SDS011;54636;51.684;5.142;2022-08-25T08:20:19;12.88;;;4.00;;
67839;SDS011;54636;51.684;5.142;2022-08-25T08:22:44;5.85;;;3.67;;
67839;SDS011;54636;51.684;5.142;2022-08-25T08:25:12;14.23;;;4.35;;
67839;SDS011;54636;51.684;5.142;2022-08-25T08:27:38;10.75;;;3.95;;
67839;SDS011;54636;51.684;5.142;2022-08-25T08:30:03;12.30;;;4.78;;
67839;SDS011;54636;51.684;5.142;2022-08-25T08:32:30;9.70;;;4.03;;
67839;SDS011;54636;51.684;5.142;2022-08-25T08:34:58;17.70;;;5.10;;
67839;SDS011;54636;51.684;5.142;2022-08-25T08:37:24;18.80;;;4.50;;
67839;SDS011;54636;51.684;5.142;2022-08-25T08:39:49;13.00;;;4.03;;
67839;SDS011;54636;51.684;5.142;2022-08-25T08:45:55;6.40;;;3.15;;
67839;SDS011;54636;51.684;5.142;2022-08-25T08:48:20;8.10;;;4.65;;
67839;SDS011;54636;51.684;5.142;2022-08-25T08:54:30;4.78;;;3.08;;
67839;SDS011;54636;51.684;5.142;2022-08-25T08:56:35;9.75;;;3.65;;
67839;SDS011;54636;51.684;5.142;2022-08-25T08:59:05;7.00;;;3.25;;
67839;SDS011;54636;51.684;5.142;2022-08-25T09:01:47;7.20;;;2.90;;
67839;SDS011;54636;51.684;5.142;2022-08-25T09:06:44;11.68;;;3.67;;
67839;SDS011;54636;51.684;5.142;2022-08-25T09:09:15;9.60;;;3.45;;
67839;SDS011;54636;51.684;5.142;2022-08-25T09:15:03;8.73;;;4.63;;
67839;SDS011;54636;51.684;5.142;2022-08-25T09:25:06;5.88;;;2.60;;
67839;SDS011;54636;51.684;5.142;2022-08-25T09:30:26;6.53;;;2.03;;
67839;SDS011;54636;51.684;5.142;2022-08-25T09:32:57;4.47;;;2.55;;
67839;SDS011;54636;51.684;5.142;2022-08-25T09:35:32;7.75;;;2.78;;
67839;SDS011;54636;51.684;5.142;2022-08-25T09:38:05;5.97;;;2.60;;
67839;SDS011;54636;51.684;5.142;2022-08-25T09:40:35;5.55;;;2.10;;
67839;SDS011;54636;51.684;5.142;2022-08-25T09:43:08;2.47;;;2.28;;
67839;SDS011;54636;51.684;5.142;2022-08-25T09:48:33;4.05;;;2.03;;
67839;SDS011;54636;51.684;5.142;2022-08-25T09:56:22;9.38;;;2.20;;
67839;SDS011;54636;51.684;5.142;2022-08-25T09:58:49;8.43;;;2.35;;
67839;SDS011;54636;51.684;5.142;2022-08-25T10:01:17;5.30;;;2.10;;
67839;SDS011;54636;51.684;5.142;2022-08-25T10:04:03;3.28;;;1.95;;
67839;SDS011;54636;51.684;5.142;2022-08-25T10:06:34;5.00;;;2.05;;
67839;SDS011;54636;51.684;5.142;2022-08-25T10:09:07;3.72;;;1.77;;
67839;SDS011;54636;51.684;5.142;2022-08-25T10:11:42;6.97;;;1.75;;
67839;SDS011;54636;51.684;5.142;2022-08-25T10:14:15;3.60;;;1.80;;
67839;SDS011;54636;51.684;5.142;2022-08-25T10:16:47;3.75;;;1.63;;
67839;SDS011;54636;51.684;5.142;2022-08-25T10:22:07;5.57;;;1.95;;
67839;SDS011;54636;51.684;5.142;2022-08-25T10:24:59;2.47;;;1.85;;
67839;SDS011;54636;51.684;5.142;2022-08-25T10:28:30;7.85;;;2.28;;
67839;SDS011;54636;51.684;5.142;2022-08-25T10:30:27;5.20;;;2.15;;
67839;SDS011;54636;51.684;5.142;2022-08-25T10:36:26;5.93;;;1.95;;
67839;SDS011;54636;51.684;5.142;2022-08-25T10:38:57;8.57;;;2.40;;
67839;SDS011;54636;51.684;5.142;2022-08-25T10:41:40;9.48;;;2.90;;
67839;SDS011;54636;51.684;5.142;2022-08-25T10:49:55;7.88;;;3.15;;
67839;SDS011;54636;51.684;5.142;2022-08-25T10:52:37;11.52;;;3.30;;
67839;SDS011;54636;51.684;5.142;2022-08-25T10:55:17;8.98;;;2.50;;
67839;SDS011;54636;51.684;5.142;2022-08-25T10:58:05;7.00;;;2.78;;
67839;SDS011;54636;51.684;5.142;2022-08-25T11:01:35;4.38;;;2.25;;
67839;SDS011;54636;51.684;5.142;2022-08-25T11:03:53;8.10;;;2.30;;
67839;SDS011;54636;51.684;5.142;2022-08-25T11:06:42;4.32;;;2.03;;
67839;SDS011;54636;51.684;5.142;2022-08-25T11:09:13;5.25;;;2.38;;
67839;SDS011;54636;51.684;5.142;2022-08-25T11:11:46;9.27;;;2.30;;
67839;SDS011;54636;51.684;5.142;2022-08-25T11:14:20;10.65;;;1.90;;
67839;SDS011;54636;51.684;5.142;2022-08-25T11:16:51;3.08;;;2.10;;
67839;SDS011;54636;51.684;5.142;2022-08-25T11:30:12;5.53;;;2.22;;
67839;SDS011;54636;51.684;5.142;2022-08-25T11:32:43;7.50;;;2.33;;
67839;SDS011;54636;51.684;5.142;2022-08-25T11:35:12;4.72;;;1.60;;
67839;SDS011;54636;51.684;5.142;2022-08-25T11:40:56;6.07;;;2.53;;
67839;SDS011;54636;51.684;5.142;2022-08-25T11:43:33;3.00;;;2.17;;
67839;SDS011;54636;51.684;5.142;2022-08-25T11:51:34;9.60;;;2.65;;
67839;SDS011;54636;51.684;5.142;2022-08-25T11:54:49;7.00;;;1.60;;
67839;SDS011;54636;51.684;5.142;2022-08-25T12:02:57;10.15;;;2.10;;
67839;SDS011;54636;51.684;5.142;2022-08-25T12:10:11;4.32;;;2.22;;
67839;SDS011;54636;51.684;5.142;2022-08-25T12:15:14;8.38;;;2.08;;
67839;SDS011;54636;51.684;5.142;2022-08-25T12:23:30;6.15;;;2.50;;
67839;SDS011;54636;51.684;5.142;2022-08-25T12:34:49;2.88;;;2.38;;
67839;SDS011;54636;51.684;5.142;2022-08-25T12:37:52;5.25;;;1.60;;
67839;SDS011;54636;51.684;5.142;2022-08-25T12:45:48;8.98;;;1.85;;
67839;SDS011;54636;51.684;5.142;2022-08-25T12:56:30;5.38;;;2.25;;
67839;SDS011;54636;51.684;5.142;2022-08-25T13:02:03;7.10;;;1.80;;
67839;SDS011;54636;51.684;5.142;2022-08-25T13:10:31;3.67;;;1.80;;
67839;SDS011;54636;51.684;5.142;2022-08-25T13:20:43;3.13;;;1.70;;
67839;SDS011;54636;51.684;5.142;2022-08-25T13:23:09;5.53;;;1.90;;
67839;SDS011;54636;51.684;5.142;2022-08-25T13:25:35;5.32;;;1.63;;
67839;SDS011;54636;51.684;5.142;2022-08-25T13:28:10;2.47;;;1.70;;
67839;SDS011;54636;51.684;5.142;2022-08-25T13:31:14;2.33;;;1.90;;
67839;SDS011;54636;51.684;5.142;2022-08-25T13:33:52;1.70;;;1.60;;
67839;SDS011;54636;51.684;5.142;2022-08-25T13:36:29;4.72;;;1.80;;
67839;SDS011;54636;51.684;5.142;2022-08-25T13:39:18;7.22;;;2.17;;
67839;SDS011;54636;51.684;5.142;2022-08-25T13:41:46;2.28;;;2.08;;
67839;SDS011;54636;51.684;5.142;2022-08-25T13:46:40;5.68;;;1.88;;
67839;SDS011;54636;51.684;5.142;2022-08-25T13:49:07;5.75;;;2.03;;
67839;SDS011;54636;51.684;5.142;2022-08-25T13:51:33;3.80;;;1.77;;
67839;SDS011;54636;51.684;5.142;2022-08-25T13:54:07;4.00;;;1.70;;
67839;SDS011;54636;51.684;5.142;2022-08-25T13:56:47;3.40;;;1.77;;
67839;SDS011;54636;51.684;5.142;2022-08-25T13:59:27;4.28;;;1.63;;
67839;SDS011;54636;51.684;5.142;2022-08-25T14:02:01;6.25;;;1.83;;
67839;SDS011;54636;51.684;5.142;2022-08-25T14:09:49;3.45;;;1.73;;
67839;SDS011;54636;51.684;5.142;2022-08-25T14:17:32;4.30;;;1.80;;
67839;SDS011;54636;51.684;5.142;2022-08-25T14:20:01;6.75;;;2.00;;
67839;SDS011;54636;51.684;5.142;2022-08-25T14:24:53;3.65;;;1.73;;
67839;SDS011;54636;51.684;5.142;2022-08-25T14:27:18;1.70;;;1.60;;
67839;SDS011;54636;51.684;5.142;2022-08-25T14:29:44;2.85;;;1.90;;
67839;SDS011;54636;51.684;5.142;2022-08-25T14:32:10;2.85;;;1.80;;
67839;SDS011;54636;51.684;5.142;2022-08-25T14:34:36;5.53;;;1.77;;
67839;SDS011;54636;51.684;5.142;2022-08-25T14:37:11;3.22;;;1.52;;
67839;SDS011;54636;51.684;5.142;2022-08-25T14:39:39;8.60;;;2.20;;
67839;SDS011;54636;51.684;5.142;2022-08-25T14:42:04;9.23;;;2.00;;
67839;SDS011;54636;51.684;5.142;2022-08-25T14:44:30;3.10;;;1.50;;
67839;SDS011;54636;51.684;5.142;2022-08-25T14:46:56;5.53;;;1.75;;
67839;SDS011;54636;51.684;5.142;2022-08-25T14:49:26;5.80;;;1.88;;
67839;SDS011;54636;51.684;5.142;2022-08-25T14:51:59;2.58;;;1.80;;
67839;SDS011;54636;51.684;5.142;2022-08-25T14:54:32;2.85;;;2.25;;
67839;SDS011;54636;51.684;5.142;2022-08-25T14:56:58;3.83;;;2.08;;
67839;SDS011;54636;51.684;5.142;2022-08-25T14:59:23;5.55;;;2.10;;
67839;SDS011;54636;51.684;5.142;2022-08-25T15:01:49;6.38;;;2.03;;
67839;SDS011;54636;51.684;5.142;2022-08-25T15:04:16;3.25;;;1.80;;
67839;SDS011;54636;51.684;5.142;2022-08-25T15:06:44;3.45;;;1.88;;
67839;SDS011;54636;51.684;5.142;2022-08-25T15:09:11;4.72;;;1.77;;
67839;SDS011;54636;51.684;5.142;2022-08-25T15:11:41;5.50;;;1.90;;
67839;SDS011;54636;51.684;5.142;2022-08-25T15:14:09;6.85;;;2.20;;
67839;SDS011;54636;51.684;5.142;2022-08-25T15:16:40;2.25;;;2.00;;
67839;SDS011;54636;51.684;5.142;2022-08-25T15:19:10;3.15;;;2.00;;
67839;SDS011;54636;51.684;5.142;2022-08-25T15:21:40;3.47;;;1.90;;
67839;SDS011;54636;51.684;5.142;2022-08-25T15:24:06;6.53;;;2.00;;
67839;SDS011;54636;51.684;5.142;2022-08-25T15:27:07;5.45;;;2.15;;
67839;SDS011;54636;51.684;5.142;2022-08-25T15:29:28;4.32;;;2.00;;
67839;SDS011;54636;51.684;5.142;2022-08-25T15:31:55;4.55;;;1.77;;
67839;SDS011;54636;51.684;5.142;2022-08-25T15:34:22;2.85;;;1.98;;
67839;SDS011;54636;51.684;5.142;2022-08-25T15:36:48;5.15;;;1.70;;
67839;SDS011;54636;51.684;5.142;2022-08-25T15:39:13;3.10;;;1.90;;
67839;SDS011;54636;51.684;5.142;2022-08-25T15:41:39;5.55;;;2.20;;
67839;SDS011;54636;51.684;5.142;2022-08-25T15:44:06;12.35;;;2.03;;
67839;SDS011;54636;51.684;5.142;2022-08-25T15:46:35;7.05;;;1.88;;
67839;SDS011;54636;51.684;5.142;2022-08-25T15:49:02;6.82;;;2.28;;
67839;SDS011;54636;51.684;5.142;2022-08-25T15:51:28;2.70;;;2.08;;
67839;SDS011;54636;51.684;5.142;2022-08-25T15:53:54;6.32;;;2.03;;
67839;SDS011;54636;51.684;5.142;2022-08-25T15:56:20;3.28;;;1.95;;
67839;SDS011;54636;51.684;5.142;2022-08-25T15:58:47;3.63;;;2.15;;
67839;SDS011;54636;51.684;5.142;2022-08-25T16:01:14;4.68;;;2.17;;
67839;SDS011;54636;51.684;5.142;2022-08-25T16:03:41;4.53;;;1.75;;
67839;SDS011;54636;51.684;5.142;2022-08-25T16:06:06;6.22;;;1.95;;
67839;SDS011;54636;51.684;5.142;2022-08-25T16:08:32;4.00;;;1.95;;
67839;SDS011;54636;51.684;5.142;2022-08-25T16:10:58;3.58;;;2.10;;
67839;SDS011;54636;51.684;5.142;2022-08-25T16:13:23;11.27;;;2.25;;
67839;SDS011;54636;51.684;5.142;2022-08-25T16:15:49;5.03;;;1.98;;
67839;SDS011;54636;51.684;5.142;2022-08-25T16:18:14;7.40;;;2.40;;
67839;SDS011;54636;51.684;5.142;2022-08-25T16:20:45;10.43;;;2.05;;
67839;SDS011;54636;51.684;5.142;2022-08-25T16:23:11;6.20;;;2.40;;
67839;SDS011;54636;51.684;5.142;2022-08-25T16:25:38;14.93;;;6.15;;
67839;SDS011;54636;51.684;5.142;2022-08-25T16:28:06;9.75;;;3.92;;
67839;SDS011;54636;51.684;5.142;2022-08-25T16:30:32;16.20;;;5.95;;
67839;SDS011;54636;51.684;5.142;2022-08-25T16:32:57;9.80;;;3.97;;
67839;SDS011;54636;51.684;5.142;2022-08-25T16:35:23;10.05;;;5.13;;
67839;SDS011;54636;51.684;5.142;2022-08-25T16:37:48;8.05;;;3.75;;
67839;SDS011;54636;51.684;5.142;2022-08-25T16:40:14;10.38;;;3.13;;
67839;SDS011;54636;51.684;5.142;2022-08-25T16:42:40;4.55;;;2.80;;
67839;SDS011;54636;51.684;5.142;2022-08-25T16:45:05;3.97;;;2.50;;
67839;SDS011;54636;51.684;5.142;2022-08-25T16:47:33;9.00;;;2.45;;
67839;SDS011;54636;51.684;5.142;2022-08-25T16:50:01;12.00;;;2.50;;
67839;SDS011;54636;51.684;5.142;2022-08-25T16:52:28;2.30;;;2.00;;
67839;SDS011;54636;51.684;5.142;2022-08-25T16:55:12;4.72;;;1.98;;
67839;SDS011;54636;51.684;5.142;2022-08-25T16:57:38;5.93;;;2.17;;
67839;SDS011;54636;51.684;5.142;2022-08-25T17:00:04;5.22;;;2.40;;
67839;SDS011;54636;51.684;5.142;2022-08-25T17:02:32;5.45;;;2.10;;
67839;SDS011;54636;51.684;5.142;2022-08-25T17:04:57;12.55;;;4.70;;
67839;SDS011;54636;51.684;5.142;2022-08-25T17:07:23;9.70;;;3.85;;
67839;SDS011;54636;51.684;5.142;2022-08-25T17:09:48;10.38;;;4.30;;
67839;SDS011;54636;51.684;5.142;2022-08-25T17:12:14;12.63;;;5.45;;
67839;SDS011;54636;51.684;5.142;2022-08-25T17:14:39;11.68;;;5.43;;